Aguilar, Colorado
Current Conditions -  °F | °C
As of 5:54 AM on Thursday 27 Nov 2014 (Local Time) from KTAD Reporting Station
Clear Clear  
Wind Chill: -5°   Ceiling: Unl
Heat Index:   Visibility: 10mi
Dew Point: -7°   Wind: 10mph
Humidity: 61%   Direction: 280°W
Pressure: 30.31"   Gusts: NA
Location:  37.4°N, 104.65°W
Report Text: KTAD 271254Z AUTO 28009KT 10SM CLR 00/M07 A3031 RMK AO2 SLP271 T00001067
Loading
Personal Weather Stations






























Interactive Weather Map New forecast layout! Learn more

10-Day Weather Forecast

Advertisements
Track Severe Weather on mobile